sensor_id;sensor_type;location;lat;lon;timestamp;P1;durP1;ratioP1;P2;durP2;ratioP2
35110;SDS011;21290;50.158;8.658;2022-10-04T00:00:58;14.63;;;9.10;;
35110;SDS011;21290;50.158;8.658;2022-10-04T00:03:31;16.08;;;8.68;;
35110;SDS011;21290;50.158;8.658;2022-10-04T00:06:02;14.20;;;8.77;;
35110;SDS011;21290;50.158;8.658;2022-10-04T00:08:48;25.02;;;9.35;;
35110;SDS011;21290;50.158;8.658;2022-10-04T00:11:26;18.55;;;9.25;;
35110;SDS011;21290;50.158;8.658;2022-10-04T00:14:00;16.90;;;9.30;;
35110;SDS011;21290;50.158;8.658;2022-10-04T00:16:36;20.70;;;9.35;;
35110;SDS011;21290;50.158;8.658;2022-10-04T00:22:26;14.67;;;9.00;;
35110;SDS011;21290;50.158;8.658;2022-10-04T00:24:37;15.32;;;9.45;;
35110;SDS011;21290;50.158;8.658;2022-10-04T00:27:33;12.18;;;8.98;;
35110;SDS011;21290;50.158;8.658;2022-10-04T00:37:53;26.85;;;9.98;;
35110;SDS011;21290;50.158;8.658;2022-10-04T00:40:31;15.65;;;9.18;;
35110;SDS011;21290;50.158;8.658;2022-10-04T00:43:02;20.95;;;10.07;;
35110;SDS011;21290;50.158;8.658;2022-10-04T00:45:35;19.98;;;10.43;;
35110;SDS011;21290;50.158;8.658;2022-10-04T00:48:27;22.67;;;10.73;;
35110;SDS011;21290;50.158;8.658;2022-10-04T00:51:12;18.83;;;10.65;;
35110;SDS011;21290;50.158;8.658;2022-10-04T00:53:46;21.90;;;11.35;;
35110;SDS011;21290;50.158;8.658;2022-10-04T00:56:33;22.42;;;11.32;;
35110;SDS011;21290;50.158;8.658;2022-10-04T00:59:28;27.58;;;11.05;;
35110;SDS011;21290;50.158;8.658;2022-10-04T01:02:27;27.50;;;11.30;;
35110;SDS011;21290;50.158;8.658;2022-10-04T01:05:22;22.58;;;11.95;;
35110;SDS011;21290;50.158;8.658;2022-10-04T01:07:56;25.30;;;12.38;;
35110;SDS011;21290;50.158;8.658;2022-10-04T01:10:30;21.52;;;12.40;;
35110;SDS011;21290;50.158;8.658;2022-10-04T01:24:43;30.40;;;11.10;;
35110;SDS011;21290;50.158;8.658;2022-10-04T01:27:31;34.00;;;13.10;;
35110;SDS011;21290;50.158;8.658;2022-10-04T01:30:06;38.42;;;12.48;;
35110;SDS011;21290;50.158;8.658;2022-10-04T01:32:36;93.25;;;12.32;;
35110;SDS011;21290;50.158;8.658;2022-10-04T01:35:07;51.22;;;13.18;;
35110;SDS011;21290;50.158;8.658;2022-10-04T01:37:36;32.03;;;12.90;;
35110;SDS011;21290;50.158;8.658;2022-10-04T01:40:05;40.40;;;13.02;;
35110;SDS011;21290;50.158;8.658;2022-10-04T01:45:14;43.10;;;12.82;;
35110;SDS011;21290;50.158;8.658;2022-10-04T01:48:08;31.40;;;12.70;;
35110;SDS011;21290;50.158;8.658;2022-10-04T01:50:40;42.38;;;12.65;;
35110;SDS011;21290;50.158;8.658;2022-10-04T01:55:47;50.65;;;12.70;;
35110;SDS011;21290;50.158;8.658;2022-10-04T01:58:21;28.27;;;13.75;;
35110;SDS011;21290;50.158;8.658;2022-10-04T02:01:05;24.70;;;12.68;;
35110;SDS011;21290;50.158;8.658;2022-10-04T02:03:41;33.60;;;12.43;;
35110;SDS011;21290;50.158;8.658;2022-10-04T02:06:13;34.88;;;12.80;;
35110;SDS011;21290;50.158;8.658;2022-10-04T02:08:44;35.55;;;12.48;;
35110;SDS011;21290;50.158;8.658;2022-10-04T02:11:18;24.98;;;12.13;;
35110;SDS011;21290;50.158;8.658;2022-10-04T02:13:47;27.65;;;12.10;;
35110;SDS011;21290;50.158;8.658;2022-10-04T02:16:18;19.90;;;12.02;;
35110;SDS011;21290;50.158;8.658;2022-10-04T02:18:46;26.65;;;11.02;;
35110;SDS011;21290;50.158;8.658;2022-10-04T02:21:15;55.50;;;11.05;;
35110;SDS011;21290;50.158;8.658;2022-10-04T02:23:43;48.90;;;12.20;;
35110;SDS011;21290;50.158;8.658;2022-10-04T02:26:11;35.53;;;11.10;;
35110;SDS011;21290;50.158;8.658;2022-10-04T02:28:38;27.45;;;10.77;;
35110;SDS011;21290;50.158;8.658;2022-10-04T02:31:05;39.40;;;10.20;;
35110;SDS011;21290;50.158;8.658;2022-10-04T02:33:54;44.67;;;9.98;;
35110;SDS011;21290;50.158;8.658;2022-10-04T02:36:24;30.92;;;9.98;;
35110;SDS011;21290;50.158;8.658;2022-10-04T02:41:33;20.05;;;10.00;;
35110;SDS011;21290;50.158;8.658;2022-10-04T02:44:19;34.65;;;10.40;;
35110;SDS011;21290;50.158;8.658;2022-10-04T02:49:55;31.73;;;8.65;;
35110;SDS011;21290;50.158;8.658;2022-10-04T02:52:33;12.50;;;8.38;;
35110;SDS011;21290;50.158;8.658;2022-10-04T02:55:18;20.65;;;9.07;;
35110;SDS011;21290;50.158;8.658;2022-10-04T02:57:48;18.25;;;8.13;;
35110;SDS011;21290;50.158;8.658;2022-10-04T03:00:18;21.20;;;7.85;;
35110;SDS011;21290;50.158;8.658;2022-10-04T03:03:08;10.38;;;7.32;;
35110;SDS011;21290;50.158;8.658;2022-10-04T03:05:46;15.07;;;7.70;;
35110;SDS011;21290;50.158;8.658;2022-10-04T03:11:09;11.55;;;7.45;;
35110;SDS011;21290;50.158;8.658;2022-10-04T03:13:38;19.23;;;7.60;;
35110;SDS011;21290;50.158;8.658;2022-10-04T03:16:11;12.93;;;7.88;;
35110;SDS011;21290;50.158;8.658;2022-10-04T03:18:39;15.80;;;7.30;;
35110;SDS011;21290;50.158;8.658;2022-10-04T03:21:07;23.58;;;9.25;;
35110;SDS011;21290;50.158;8.658;2022-10-04T03:28:48;18.38;;;8.52;;
35110;SDS011;21290;50.158;8.658;2022-10-04T03:31:15;22.73;;;8.20;;
35110;SDS011;21290;50.158;8.658;2022-10-04T03:33:44;14.48;;;8.15;;
35110;SDS011;21290;50.158;8.658;2022-10-04T03:36:13;36.22;;;10.57;;
35110;SDS011;21290;50.158;8.658;2022-10-04T03:38:46;14.73;;;8.25;;
35110;SDS011;21290;50.158;8.658;2022-10-04T03:41:14;16.52;;;9.82;;
35110;SDS011;21290;50.158;8.658;2022-10-04T03:43:43;29.50;;;9.20;;
35110;SDS011;21290;50.158;8.658;2022-10-04T03:46:11;34.60;;;8.50;;
35110;SDS011;21290;50.158;8.658;2022-10-04T03:48:40;14.40;;;9.23;;
35110;SDS011;21290;50.158;8.658;2022-10-04T03:51:13;22.42;;;9.20;;
35110;SDS011;21290;50.158;8.658;2022-10-04T03:53:45;20.67;;;9.50;;
35110;SDS011;21290;50.158;8.658;2022-10-04T03:58:46;67.65;;;9.38;;
35110;SDS011;21290;50.158;8.658;2022-10-04T04:04:11;15.48;;;9.45;;
35110;SDS011;21290;50.158;8.658;2022-10-04T04:09:18;15.27;;;9.23;;
35110;SDS011;21290;50.158;8.658;2022-10-04T04:11:58;21.00;;;9.07;;
35110;SDS011;21290;50.158;8.658;2022-10-04T04:14:27;14.43;;;9.18;;
35110;SDS011;21290;50.158;8.658;2022-10-04T04:16:54;15.98;;;8.38;;
35110;SDS011;21290;50.158;8.658;2022-10-04T04:20:01;12.05;;;8.50;;
35110;SDS011;21290;50.158;8.658;2022-10-04T04:22:33;13.43;;;8.52;;
35110;SDS011;21290;50.158;8.658;2022-10-04T04:25:01;11.60;;;8.38;;
35110;SDS011;21290;50.158;8.658;2022-10-04T04:27:34;16.02;;;8.13;;
35110;SDS011;21290;50.158;8.658;2022-10-04T04:30:03;10.68;;;8.20;;
35110;SDS011;21290;50.158;8.658;2022-10-04T04:32:35;11.88;;;8.40;;
35110;SDS011;21290;50.158;8.658;2022-10-04T04:35:05;13.55;;;8.15;;
35110;SDS011;21290;50.158;8.658;2022-10-04T04:37:54;10.55;;;7.80;;
35110;SDS011;21290;50.158;8.658;2022-10-04T04:40:32;14.05;;;9.30;;
35110;SDS011;21290;50.158;8.658;2022-10-04T04:42:59;24.77;;;9.30;;
35110;SDS011;21290;50.158;8.658;2022-10-04T04:45:28;12.77;;;9.20;;
35110;SDS011;21290;50.158;8.658;2022-10-04T04:47:57;12.65;;;8.73;;
35110;SDS011;21290;50.158;8.658;2022-10-04T04:50:27;11.10;;;8.90;;
35110;SDS011;21290;50.158;8.658;2022-10-04T04:55:31;12.90;;;8.93;;
35110;SDS011;21290;50.158;8.658;2022-10-04T04:58:25;11.35;;;8.20;;
35110;SDS011;21290;50.158;8.658;2022-10-04T05:00:58;10.73;;;8.45;;
35110;SDS011;21290;50.158;8.658;2022-10-04T05:03:28;16.30;;;9.35;;
35110;SDS011;21290;50.158;8.658;2022-10-04T05:05:59;30.88;;;8.40;;
35110;SDS011;21290;50.158;8.658;2022-10-04T05:08:31;14.32;;;8.95;;
35110;SDS011;21290;50.158;8.658;2022-10-04T05:16:40;10.93;;;7.43;;
35110;SDS011;21290;50.158;8.658;2022-10-04T05:18:59;10.57;;;7.22;;
35110;SDS011;21290;50.158;8.658;2022-10-04T05:21:29;11.52;;;7.05;;
35110;SDS011;21290;50.158;8.658;2022-10-04T05:23:57;8.27;;;6.43;;
35110;SDS011;21290;50.158;8.658;2022-10-04T05:26:34;14.35;;;7.15;;
35110;SDS011;21290;50.158;8.658;2022-10-04T05:29:06;8.93;;;6.65;;
35110;SDS011;21290;50.158;8.658;2022-10-04T05:34:21;13.90;;;7.80;;
35110;SDS011;21290;50.158;8.658;2022-10-04T05:42:40;12.13;;;7.95;;
35110;SDS011;21290;50.158;8.658;2022-10-04T05:45:11;10.43;;;8.13;;
35110;SDS011;21290;50.158;8.658;2022-10-04T05:47:44;11.68;;;8.23;;
35110;SDS011;21290;50.158;8.658;2022-10-04T05:50:14;11.98;;;7.95;;
35110;SDS011;21290;50.158;8.658;2022-10-04T05:52:45;11.93;;;7.93;;
35110;SDS011;21290;50.158;8.658;2022-10-04T05:55:16;11.50;;;8.57;;
35110;SDS011;21290;50.158;8.658;2022-10-04T06:00:16;11.18;;;7.93;;
35110;SDS011;21290;50.158;8.658;2022-10-04T06:05:41;8.18;;;6.88;;
35110;SDS011;21290;50.158;8.658;2022-10-04T06:08:21;9.02;;;7.00;;
35110;SDS011;21290;50.158;8.658;2022-10-04T06:14:12;9.57;;;7.15;;
35110;SDS011;21290;50.158;8.658;2022-10-04T06:19:45;11.10;;;7.05;;
35110;SDS011;21290;50.158;8.658;2022-10-04T06:22:33;12.65;;;7.65;;
35110;SDS011;21290;50.158;8.658;2022-10-04T06:25:11;9.07;;;6.90;;
35110;SDS011;21290;50.158;8.658;2022-10-04T06:27:54;11.75;;;7.72;;
35110;SDS011;21290;50.158;8.658;2022-10-04T06:41:46;9.85;;;8.13;;
35110;SDS011;21290;50.158;8.658;2022-10-04T06:47:25;33.00;;;23.23;;
35110;SDS011;21290;50.158;8.658;2022-10-04T06:53:10;20.48;;;11.60;;
35110;SDS011;21290;50.158;8.658;2022-10-04T07:01:46;11.07;;;8.88;;
35110;SDS011;21290;50.158;8.658;2022-10-04T07:07:35;11.15;;;7.80;;
35110;SDS011;21290;50.158;8.658;2022-10-04T07:15:46;8.82;;;6.68;;
35110;SDS011;21290;50.158;8.658;2022-10-04T07:18:15;11.05;;;8.40;;
35110;SDS011;21290;50.158;8.658;2022-10-04T07:20:47;9.27;;;7.50;;
35110;SDS011;21290;50.158;8.658;2022-10-04T07:23:26;12.00;;;8.23;;
35110;SDS011;21290;50.158;8.658;2022-10-04T07:26:03;10.55;;;7.60;;
35110;SDS011;21290;50.158;8.658;2022-10-04T07:28:39;9.98;;;7.25;;
35110;SDS011;21290;50.158;8.658;2022-10-04T07:31:28;10.10;;;8.32;;
35110;SDS011;21290;50.158;8.658;2022-10-04T07:34:20;12.95;;;8.85;;
35110;SDS011;21290;50.158;8.658;2022-10-04T07:36:56;11.43;;;7.95;;
35110;SDS011;21290;50.158;8.658;2022-10-04T07:42:34;10.70;;;7.45;;
35110;SDS011;21290;50.158;8.658;2022-10-04T07:47:38;9.63;;;6.53;;
35110;SDS011;21290;50.158;8.658;2022-10-04T07:50:18;7.35;;;6.20;;
35110;SDS011;21290;50.158;8.658;2022-10-04T07:56:01;8.90;;;6.90;;
35110;SDS011;21290;50.158;8.658;2022-10-04T08:01:38;7.35;;;6.47;;
35110;SDS011;21290;50.158;8.658;2022-10-04T08:04:25;11.95;;;6.28;;
35110;SDS011;21290;50.158;8.658;2022-10-04T08:09:31;7.80;;;6.30;;
35110;SDS011;21290;50.158;8.658;2022-10-04T08:12:24;8.63;;;6.25;;
35110;SDS011;21290;50.158;8.658;2022-10-04T08:25:55;9.20;;;6.03;;
35110;SDS011;21290;50.158;8.658;2022-10-04T08:28:43;6.93;;;6.22;;
35110;SDS011;21290;50.158;8.658;2022-10-04T08:37:07;7.80;;;6.80;;
35110;SDS011;21290;50.158;8.658;2022-10-04T08:39:49;8.18;;;6.60;;
35110;SDS011;21290;50.158;8.658;2022-10-04T08:48:09;8.38;;;6.38;;
35110;SDS011;21290;50.158;8.658;2022-10-04T08:56:56;7.60;;;5.85;;
35110;SDS011;21290;50.158;8.658;2022-10-04T09:00:02;6.07;;;5.45;;
35110;SDS011;21290;50.158;8.658;2022-10-04T09:11:40;5.90;;;4.90;;
35110;SDS011;21290;50.158;8.658;2022-10-04T09:26:20;10.63;;;5.05;;
35110;SDS011;21290;50.158;8.658;2022-10-04T09:40:49;10.70;;;5.50;;
35110;SDS011;21290;50.158;8.658;2022-10-04T09:43:46;11.38;;;5.68;;
35110;SDS011;21290;50.158;8.658;2022-10-04T09:46:50;10.27;;;5.80;;
35110;SDS011;21290;50.158;8.658;2022-10-04T09:49:47;9.37;;;4.83;;
35110;SDS011;21290;50.158;8.658;2022-10-04T09:52:28;7.28;;;4.78;;
35110;SDS011;21290;50.158;8.658;2022-10-04T09:55:16;9.93;;;5.47;;
35110;SDS011;21290;50.158;8.658;2022-10-04T09:58:05;13.57;;;4.97;;
35110;SDS011;21290;50.158;8.658;2022-10-04T10:00:53;8.15;;;4.85;;
35110;SDS011;21290;50.158;8.658;2022-10-04T10:06:45;28.40;;;7.07;;
